Time;durP1;ratioP1;P1;durP2;ratioP2;P2;SDS_P1;SDS_P2;PMS_P1;PMS_P2;Temp;Humidity;BMP_temperature;BMP_pressure;BME280_temperature;BME280_humidity;BME280_pressure;Samples;Min_cycle;Max_cycle;Signal;HPM_P1;HPM_P2
2023/01/22 00:02:22;;;;;;;12.67;7.47;;;-0.70;99.90;;;;;;5002541;28;20197;-48
2023/01/22 00:04:49;;;;;;;11.33;8.40;;;-0.70;99.90;;;;;;5005742;28;20766;-49
2023/01/22 00:07:21;;;;;;;15.60;8.67;;;-0.80;99.90;;;;;;5009667;28;20348;-49
2023/01/22 00:09:48;;;;;;;16.27;9.47;;;-0.80;99.90;;;;;;5001193;28;20293;-48
2023/01/22 00:12:16;;;;;;;16.23;8.63;;;-0.80;99.90;;;;;;4997349;28;20221;-48
2023/01/22 00:14:43;;;;;;;15.53;9.60;;;-0.70;99.90;;;;;;5006995;28;20224;-48
2023/01/22 00:17:14;;;;;;;14.30;8.70;;;-0.80;99.90;;;;;;5009227;28;20283;-48
2023/01/22 00:19:41;;;;;;;13.30;8.70;;;-0.80;99.90;;;;;;5002230;28;20204;-47
2023/01/22 00:22:09;;;;;;;16.00;8.70;;;-0.80;99.90;;;;;;4997291;28;20290;-47
2023/01/22 00:24:38;;;;;;;14.70;8.10;;;-0.80;99.90;;;;;;5007258;28;20230;-48
2023/01/22 00:27:05;;;;;;;16.63;9.45;;;-0.90;99.90;;;;;;5000684;28;20465;-48
2023/01/22 00:29:33;;;;;;;15.37;8.73;;;-0.90;99.90;;;;;;5001529;28;20208;-47
2023/01/22 00:32:00;;;;;;;14.80;8.67;;;-0.90;99.90;;;;;;5000920;28;20534;-47
2023/01/22 00:34:31;;;;;;;11.97;7.83;;;-0.80;99.90;;;;;;5008643;28;20967;-47
2023/01/22 00:36:58;;;;;;;15.30;8.47;;;-0.80;99.90;;;;;;5003632;28;20201;-47
2023/01/22 00:39:25;;;;;;;14.10;8.90;;;-0.90;99.90;;;;;;5001849;28;20199;-47
2023/01/22 00:41:53;;;;;;;14.63;8.60;;;-0.90;99.90;;;;;;4999472;28;20203;-49
2023/01/22 00:44:20;;;;;;;13.90;9.17;;;-0.80;99.90;;;;;;5007383;28;20621;-48
2023/01/22 00:46:47;;;;;;;13.13;8.33;;;-0.70;99.90;;;;;;5012073;28;20247;-46
2023/01/22 00:49:14;;;;;;;14.47;8.83;;;-0.80;99.90;;;;;;5005366;28;20207;-48
2023/01/22 00:51:41;;;;;;;16.00;9.47;;;-0.80;99.90;;;;;;5015309;28;20209;-47
2023/01/22 00:54:09;;;;;;;16.23;9.67;;;-0.80;99.90;;;;;;5026263;28;20285;-49
2023/01/22 00:56:37;;;;;;;18.90;10.60;;;-0.80;99.90;;;;;;5020667;28;20215;-49
2023/01/22 00:59:09;;;;;;;14.73;8.87;;;-0.80;99.90;;;;;;5026175;28;20200;-47
2023/01/22 01:01:37;;;;;;;18.27;10.37;;;-0.80;99.90;;;;;;5009897;28;20662;-47
2023/01/22 01:04:04;;;;;;;17.03;9.37;;;-0.90;99.90;;;;;;5010166;28;20267;-47
2023/01/22 01:06:31;;;;;;;16.13;8.43;;;-0.90;99.90;;;;;;5011118;28;20232;-47
2023/01/22 01:08:58;;;;;;;15.50;9.43;;;-0.80;99.90;;;;;;5006035;28;20725;-48
2023/01/22 01:11:26;;;;;;;17.97;9.50;;;-0.80;99.90;;;;;;5005084;28;20283;-50
2023/01/22 01:13:53;;;;;;;17.30;9.90;;;-0.90;99.90;;;;;;5010644;28;20217;-49
2023/01/22 01:16:24;;;;;;;16.27;10.30;;;-0.90;99.90;;;;;;5012555;28;20224;-48
2023/01/22 01:18:51;;;;;;;16.87;10.37;;;-0.80;99.90;;;;;;5006135;28;20227;-48
2023/01/22 01:21:19;;;;;;;17.13;9.53;;;-0.80;99.90;;;;;;5011352;28;20262;-48
2023/01/22 01:23:46;;;;;;;16.07;10.13;;;-0.90;99.90;;;;;;5012470;28;20200;-48
2023/01/22 01:26:16;;;;;;;16.87;8.87;;;-0.90;99.90;;;;;;4997334;28;20283;-48
2023/01/22 01:28:44;;;;;;;21.90;11.77;;;-0.90;99.90;;;;;;5004008;28;20266;-48
2023/01/22 01:31:13;;;;;;;15.27;9.63;;;-0.90;99.90;;;;;;5009160;28;20285;-48
2023/01/22 01:33:42;;;;;;;18.23;9.53;;;-0.90;99.90;;;;;;5003193;28;20355;-48
2023/01/22 01:36:12;;;;;;;16.43;9.37;;;-0.90;99.90;;;;;;5002116;28;20221;-48
2023/01/22 01:38:39;;;;;;;16.03;9.00;;;-0.90;99.90;;;;;;5002898;28;20214;-51
2023/01/22 01:41:07;;;;;;;16.83;10.17;;;-0.80;99.90;;;;;;5010487;28;20216;-47
2023/01/22 01:43:34;;;;;;;16.77;9.67;;;-0.90;99.90;;;;;;5012703;28;20265;-48
2023/01/22 01:46:03;;;;;;;15.70;9.17;;;-0.80;99.90;;;;;;5009011;28;20288;-47
2023/01/22 01:48:35;;;;;;;17.43;10.23;;;-0.80;99.90;;;;;;5001589;28;20213;-48
2023/01/22 01:51:09;;;;;;;18.83;10.17;;;-0.80;99.90;;;;;;5009462;28;20755;-48
2023/01/22 01:53:37;;;;;;;15.53;10.33;;;-0.80;99.90;;;;;;5005757;28;20698;-47
2023/01/22 01:56:10;;;;;;;18.93;10.33;;;-0.80;99.90;;;;;;5006416;28;20288;-47
2023/01/22 01:58:39;;;;;;;16.33;9.90;;;-0.90;99.90;;;;;;5002376;28;20719;-47
2023/01/22 02:01:11;;;;;;;15.70;9.03;;;-1.00;99.90;;;;;;5012102;28;20227;-48
2023/01/22 02:03:39;;;;;;;17.00;9.80;;;-1.00;99.90;;;;;;5006308;28;20547;-48
2023/01/22 02:06:10;;;;;;;16.10;9.77;;;-0.90;99.90;;;;;;5006111;28;20223;-47
2023/01/22 02:08:37;;;;;;;20.30;10.57;;;-0.90;99.90;;;;;;5004813;28;20205;-48
2023/01/22 02:11:04;;;;;;;15.43;10.03;;;-0.80;99.90;;;;;;5011142;28;20224;-48
2023/01/22 02:13:35;;;;;;;16.90;10.33;;;-0.80;99.90;;;;;;5004232;28;20229;-48
2023/01/22 02:16:02;;;;;;;14.67;9.00;;;-0.80;99.90;;;;;;5009291;28;20225;-49
2023/01/22 02:18:29;;;;;;;17.63;9.83;;;-0.90;99.90;;;;;;5001062;28;20260;-47
2023/01/22 02:21:00;;;;;;;14.63;9.67;;;-0.90;99.90;;;;;;5010178;28;20617;-48
2023/01/22 02:23:30;;;;;;;16.87;9.27;;;-0.90;99.90;;;;;;5009373;28;20620;-48
2023/01/22 02:25:57;;;;;;;17.17;10.47;;;-0.80;99.90;;;;;;5003751;28;20232;-47
2023/01/22 02:28:24;;;;;;;16.47;9.33;;;-0.80;99.90;;;;;;5004472;28;20276;-49
2023/01/22 02:30:51;;;;;;;17.60;9.33;;;-0.80;99.90;;;;;;5010742;28;20210;-48
2023/01/22 02:33:18;;;;;;;18.03;10.53;;;-0.70;99.90;;;;;;5011274;28;20227;-49
2023/01/22 02:35:45;;;;;;;20.33;10.63;;;-0.80;99.90;;;;;;5003047;28;20723;-47
2023/01/22 02:38:14;;;;;;;19.07;12.03;;;-0.80;99.90;;;;;;5010435;28;20532;-49
2023/01/22 02:40:47;;;;;;;17.10;10.30;;;-0.80;99.90;;;;;;5004077;28;20966;-48
2023/01/22 02:43:15;;;;;;;15.10;10.00;;;-0.80;99.90;;;;;;4993662;28;20280;-47
2023/01/22 02:45:43;;;;;;;15.73;10.10;;;-0.90;99.90;;;;;;5002066;28;20309;-49
2023/01/22 02:48:10;;;;;;;16.17;9.90;;;-0.90;99.90;;;;;;5010830;28;20556;-48
2023/01/22 02:50:37;;;;;;;16.70;10.00;;;-1.00;99.90;;;;;;5003881;28;20700;-49
2023/01/22 02:53:04;;;;;;;16.83;10.27;;;-1.00;99.90;;;;;;5002347;28;20269;-48
2023/01/22 02:55:32;;;;;;;18.93;11.80;;;-1.00;99.90;;;;;;5001556;28;20233;-49
2023/01/22 02:57:59;;;;;;;21.50;10.83;;;-1.00;99.90;;;;;;5003208;28;20232;-48
2023/01/22 03:00:26;;;;;;;16.03;9.67;;;-0.90;99.90;;;;;;5007913;28;20208;-47
2023/01/22 03:02:53;;;;;;;12.50;8.93;;;-0.90;99.90;;;;;;5003312;28;20201;-48
2023/01/22 03:05:20;;;;;;;18.20;9.93;;;-0.80;99.90;;;;;;5008455;28;20241;-47
2023/01/22 03:07:47;;;;;;;16.67;9.27;;;-0.70;99.90;;;;;;4999340;28;20559;-48
2023/01/22 03:10:16;;;;;;;16.73;10.80;;;-0.80;99.90;;;;;;5005435;28;20202;-46
2023/01/22 03:23:45;;;;;;;18.33;11.13;;;-0.90;99.90;;;;;;5004282;28;20246;-48
2023/01/22 03:26:13;;;;;;;19.07;10.17;;;-0.90;99.90;;;;;;5007345;28;20215;-46
2023/01/22 03:28:42;;;;;;;17.47;9.37;;;-1.00;99.90;;;;;;5007572;28;20667;-48
2023/01/22 03:31:09;;;;;;;17.37;10.20;;;-0.90;99.90;;;;;;5008137;28;20213;-48
2023/01/22 03:33:36;;;;;;;20.97;10.37;;;-0.90;99.90;;;;;;4999256;28;20713;-47
2023/01/22 03:36:05;;;;;;;18.57;11.20;;;-0.90;99.90;;;;;;5001010;28;20338;-47
2023/01/22 03:38:32;;;;;;;17.67;9.80;;;-0.80;99.90;;;;;;5000894;28;20209;-48
2023/01/22 03:41:03;;;;;;;14.87;9.77;;;-0.80;99.90;;;;;;5002327;28;22102;-48
2023/01/22 03:43:31;;;;;;;19.77;11.67;;;-0.80;99.90;;;;;;4999633;28;20561;-48
2023/01/22 03:46:04;;;;;;;20.07;10.63;;;-0.80;99.90;;;;;;5002090;28;20294;-48
2023/01/22 03:48:31;;;;;;;17.20;10.87;;;-0.90;99.90;;;;;;5005835;28;20201;-51
2023/01/22 03:51:05;;;;;;;17.97;10.47;;;-0.90;99.90;;;;;;5010179;28;20564;-48
2023/01/22 03:53:32;;;;;;;18.93;11.30;;;-0.90;99.90;;;;;;5003766;28;20219;-49
2023/01/22 03:56:01;;;;;;;19.40;11.27;;;-0.90;99.90;;;;;;5008571;28;20225;-48
2023/01/22 03:58:29;;;;;;;15.47;9.40;;;-0.90;99.90;;;;;;5002317;28;20207;-49
2023/01/22 04:00:57;;;;;;;18.37;11.43;;;-0.90;99.90;;;;;;5003075;28;20212;-48
2023/01/22 04:03:28;;;;;;;18.00;11.57;;;-0.90;99.90;;;;;;5005699;28;20734;-47
2023/01/22 04:05:58;;;;;;;18.93;11.80;;;-0.90;99.90;;;;;;5006937;28;20283;-47
2023/01/22 04:08:27;;;;;;;18.17;10.93;;;-0.90;99.90;;;;;;5001284;28;20205;-48
2023/01/22 04:10:54;;;;;;;18.07;11.57;;;-0.90;99.90;;;;;;4999759;28;20200;-47
2023/01/22 04:13:21;;;;;;;17.63;10.43;;;-1.00;99.90;;;;;;5004290;28;20225;-48
2023/01/22 04:15:48;;;;;;;20.53;10.27;;;-1.00;99.90;;;;;;5011564;28;20275;-47
2023/01/22 04:18:15;;;;;;;18.70;11.73;;;-1.10;99.90;;;;;;5004755;28;20275;-48
2023/01/22 04:20:44;;;;;;;23.43;13.47;;;-1.10;99.90;;;;;;5005399;28;20200;-48
2023/01/22 04:23:11;;;;;;;19.80;11.37;;;-1.10;99.90;;;;;;5003342;28;20662;-47
2023/01/22 04:25:38;;;;;;;21.90;12.63;;;-1.10;99.90;;;;;;5008865;28;20278;-47
2023/01/22 04:28:07;;;;;;;21.40;12.57;;;-1.10;99.90;;;;;;5000694;28;20564;-47
2023/01/22 04:30:34;;;;;;;21.60;12.13;;;-1.10;99.90;;;;;;5001365;28;20214;-46
2023/01/22 04:33:01;;;;;;;23.23;13.40;;;-1.10;99.90;;;;;;5004030;28;20698;-48
2023/01/22 04:35:28;;;;;;;19.60;12.27;;;-1.10;99.90;;;;;;5003268;28;20240;-47
2023/01/22 04:37:57;;;;;;;21.17;12.23;;;-1.10;99.90;;;;;;4998873;28;20205;-48
2023/01/22 04:40:24;;;;;;;21.00;12.97;;;-1.10;99.90;;;;;;5000761;28;20252;-47
2023/01/22 04:42:51;;;;;;;22.17;14.53;;;-1.10;99.90;;;;;;5004508;28;20207;-49
2023/01/22 04:45:18;;;;;;;22.63;16.40;;;-1.20;99.90;;;;;;5008483;28;20673;-48
2023/01/22 04:47:47;;;;;;;23.93;16.53;;;-1.20;99.90;;;;;;4991434;28;20282;-49
2023/01/22 04:50:17;;;;;;;22.33;15.17;;;-1.20;99.90;;;;;;4991673;28;20658;-47
2023/01/22 04:52:44;;;;;;;23.23;14.63;;;-1.20;99.90;;;;;;4996895;28;20570;-48
2023/01/22 04:55:13;;;;;;;19.80;13.23;;;-1.20;99.90;;;;;;5009939;28;20288;-48
2023/01/22 04:57:40;;;;;;;20.73;13.47;;;-1.20;99.90;;;;;;5001811;28;20282;-47
2023/01/22 05:00:09;;;;;;;21.30;14.07;;;-1.20;99.90;;;;;;4999190;28;20209;-47
2023/01/22 05:02:36;;;;;;;20.90;12.03;;;-1.30;99.90;;;;;;4995734;28;20214;-48
2023/01/22 05:05:03;;;;;;;21.43;12.33;;;-1.30;99.90;;;;;;5009778;28;20220;-49
2023/01/22 05:07:30;;;;;;;20.47;11.63;;;-1.20;99.90;;;;;;5002820;28;20203;-50
2023/01/22 05:09:57;;;;;;;22.90;12.67;;;-1.20;99.90;;;;;;5011391;28;20203;-49
2023/01/22 05:12:26;;;;;;;24.70;12.73;;;-1.20;99.90;;;;;;5010306;28;20252;-47
2023/01/22 05:14:53;;;;;;;24.07;13.73;;;-1.20;99.90;;;;;;5008889;28;20657;-47
2023/01/22 05:17:21;;;;;;;24.50;13.87;;;-1.20;99.90;;;;;;4997342;28;20579;-47
2023/01/22 05:19:48;;;;;;;23.20;13.30;;;-1.20;99.90;;;;;;4991611;28;20236;-47
2023/01/22 05:22:18;;;;;;;21.10;13.03;;;-1.20;99.90;;;;;;4992453;28;20622;-48
2023/01/22 05:24:45;;;;;;;23.43;13.23;;;-1.30;99.90;;;;;;5009693;28;20938;-48
2023/01/22 05:27:16;;;;;;;20.67;13.00;;;-1.30;99.90;;;;;;4996984;28;20200;-48
2023/01/22 05:29:44;;;;;;;22.60;14.07;;;-1.30;99.90;;;;;;4998215;28;20204;-47
2023/01/22 05:32:12;;;;;;;23.03;13.50;;;-1.30;99.90;;;;;;5003561;28;20209;-47
2023/01/22 05:34:41;;;;;;;21.30;12.30;;;-1.30;99.90;;;;;;5003223;28;20252;-47
2023/01/22 05:37:08;;;;;;;24.67;14.20;;;-1.30;99.90;;;;;;5006217;28;20254;-47
2023/01/22 05:39:35;;;;;;;21.53;14.00;;;-1.30;99.90;;;;;;5012848;28;20204;-47
2023/01/22 05:42:02;;;;;;;21.30;12.67;;;-1.30;99.90;;;;;;5002961;28;20298;-48
2023/01/22 05:44:28;;;;;;;27.33;14.20;;;-1.30;99.90;;;;;;5013344;28;20653;-48
2023/01/22 05:46:57;;;;;;;19.70;12.97;;;-1.40;99.90;;;;;;5013898;28;20238;-47
2023/01/22 05:49:24;;;;;;;22.70;12.73;;;-1.40;99.90;;;;;;5014257;28;20209;-47
2023/01/22 05:51:51;;;;;;;22.63;13.93;;;-1.40;99.90;;;;;;5007836;28;20200;-50
2023/01/22 05:54:18;;;;;;;23.43;13.37;;;-1.40;99.90;;;;;;5006805;28;20579;-48
2023/01/22 05:56:45;;;;;;;20.00;12.63;;;-1.40;99.90;;;;;;5007844;28;20616;-47
2023/01/22 05:59:12;;;;;;;20.70;13.13;;;-1.40;99.90;;;;;;5004903;28;20201;-47
2023/01/22 06:01:40;;;;;;;20.57;12.00;;;-1.40;99.90;;;;;;5008625;28;20204;-47
2023/01/22 06:04:09;;;;;;;21.23;13.10;;;-1.40;99.90;;;;;;5008921;28;20192;-47
2023/01/22 06:06:36;;;;;;;20.73;12.13;;;-1.40;99.90;;;;;;4994379;28;20292;-47
2023/01/22 06:09:03;;;;;;;20.17;12.10;;;-1.40;99.90;;;;;;5001444;28;20627;-48
2023/01/22 06:11:30;;;;;;;23.07;12.97;;;-1.40;99.90;;;;;;5009349;28;20212;-47
2023/01/22 06:13:57;;;;;;;23.10;13.70;;;-1.40;99.90;;;;;;5005821;28;20217;-49
2023/01/22 06:16:24;;;;;;;19.83;11.53;;;-1.40;99.90;;;;;;5013861;28;20575;-46
2023/01/22 06:18:51;;;;;;;23.23;13.67;;;-1.40;99.90;;;;;;5008772;28;20204;-48
2023/01/22 06:21:19;;;;;;;20.40;12.20;;;-1.40;99.90;;;;;;5007206;28;20274;-47
2023/01/22 06:23:46;;;;;;;19.00;12.93;;;-1.40;99.90;;;;;;5005370;28;20295;-47
2023/01/22 06:26:13;;;;;;;18.10;11.43;;;-1.40;99.90;;;;;;5010181;28;20228;-47
2023/01/22 06:28:41;;;;;;;20.73;12.33;;;-1.40;99.90;;;;;;5008650;28;20195;-47
2023/01/22 06:31:08;;;;;;;22.50;13.37;;;-1.40;99.90;;;;;;5010694;28;20196;-47
2023/01/22 06:33:36;;;;;;;24.90;13.23;;;-1.30;99.90;;;;;;5012750;28;20263;-48
2023/01/22 06:36:04;;;;;;;24.80;14.10;;;-1.40;99.90;;;;;;4993951;28;20535;-48
2023/01/22 06:38:33;;;;;;;24.00;13.20;;;-1.40;99.90;;;;;;5000083;28;20207;-48
2023/01/22 06:41:00;;;;;;;24.13;13.83;;;-1.50;99.90;;;;;;5004741;28;20270;-47
2023/01/22 06:43:28;;;;;;;25.03;13.23;;;-1.50;99.90;;;;;;5003993;28;20207;-48
2023/01/22 06:45:55;;;;;;;24.53;12.93;;;-1.50;99.90;;;;;;5001851;28;20292;-49
2023/01/22 06:48:22;;;;;;;21.70;12.90;;;-1.50;99.90;;;;;;4997520;28;20258;-47
2023/01/22 06:50:49;;;;;;;25.67;14.70;;;-1.50;99.90;;;;;;5005827;28;20783;-48
2023/01/22 06:53:16;;;;;;;22.03;13.13;;;-1.50;99.90;;;;;;4998916;28;20684;-47
2023/01/22 06:55:45;;;;;;;21.33;13.90;;;-1.60;99.90;;;;;;4993607;28;20231;-49
2023/01/22 06:58:12;;;;;;;19.50;11.73;;;-1.60;99.90;;;;;;4998447;28;20195;-48
2023/01/22 07:00:39;;;;;;;24.43;13.90;;;-1.60;99.90;;;;;;5010521;28;20208;-47
2023/01/22 07:03:07;;;;;;;25.43;14.13;;;-1.60;99.90;;;;;;5012282;28;20196;-51
2023/01/22 07:05:34;;;;;;;24.30;12.93;;;-1.60;99.90;;;;;;5011737;28;20263;-49
2023/01/22 07:08:02;;;;;;;22.53;13.63;;;-1.50;99.90;;;;;;5011840;28;20848;-47
2023/01/22 07:10:29;;;;;;;24.20;14.90;;;-1.50;99.90;;;;;;5009065;28;20229;-48
2023/01/22 07:12:58;;;;;;;25.13;13.10;;;-1.50;99.90;;;;;;5004149;28;20251;-48
2023/01/22 07:15:26;;;;;;;26.83;15.67;;;-1.40;99.90;;;;;;5003939;28;20228;-49
2023/01/22 07:17:54;;;;;;;24.27;15.70;;;-1.40;99.90;;;;;;5011553;28;20196;-47
2023/01/22 07:20:22;;;;;;;31.67;16.50;;;-1.40;99.90;;;;;;5009296;28;20631;-48
2023/01/22 07:22:49;;;;;;;27.37;16.70;;;-1.40;99.90;;;;;;5013787;28;20625;-48
2023/01/22 07:25:16;;;;;;;28.43;16.23;;;-1.40;99.90;;;;;;5001687;28;20218;-47
2023/01/22 07:27:43;;;;;;;27.93;15.43;;;-1.50;99.90;;;;;;4995508;28;20340;-47
2023/01/22 07:30:13;;;;;;;26.63;15.40;;;-1.50;99.90;;;;;;5000123;28;20199;-47
2023/01/22 07:32:40;;;;;;;27.83;14.97;;;-1.60;99.90;;;;;;5004407;28;20205;-49
2023/01/22 07:35:07;;;;;;;24.97;14.43;;;-1.60;99.90;;;;;;5008333;28;20224;-48
2023/01/22 07:37:35;;;;;;;25.87;14.70;;;-1.60;99.90;;;;;;5016845;28;20689;-48
2023/01/22 07:40:02;;;;;;;28.00;15.40;;;-1.60;99.90;;;;;;5013983;28;20264;-47
2023/01/22 07:42:29;;;;;;;25.53;15.73;;;-1.60;99.90;;;;;;5009123;28;20210;-46
2023/01/22 07:44:56;;;;;;;27.97;15.50;;;-1.60;99.90;;;;;;5010981;28;20221;-47
2023/01/22 07:47:24;;;;;;;27.27;15.03;;;-1.50;99.90;;;;;;5000013;28;20582;-49
2023/01/22 07:49:51;;;;;;;32.43;17.43;;;-1.50;99.90;;;;;;5010745;28;20299;-47
2023/01/22 07:52:18;;;;;;;34.70;18.67;;;-1.40;99.90;;;;;;5011578;28;20205;-47
2023/01/22 07:54:45;;;;;;;34.57;18.50;;;-1.10;99.90;;;;;;5002927;28;20228;-48
2023/01/22 07:57:17;;;;;;;31.83;19.20;;;-1.00;99.90;;;;;;4998233;28;20274;-49
2023/01/22 07:59:44;;;;;;;39.33;20.93;;;-0.70;99.90;;;;;;4998215;28;20219;-47
2023/01/22 08:02:16;;;;;;;33.90;18.93;;;-0.60;99.90;;;;;;4999126;28;20269;-48
2023/01/22 08:04:44;;;;;;;28.30;16.53;;;-0.50;99.90;;;;;;5000562;28;20326;-48
2023/01/22 08:07:18;;;;;;;34.00;17.13;;;-0.40;99.90;;;;;;5001209;28;20215;-48
2023/01/22 08:09:45;;;;;;;28.20;17.13;;;-0.30;99.90;;;;;;5005802;28;20199;-48
2023/01/22 08:12:15;;;;;;;28.17;17.60;;;-0.20;99.90;;;;;;5011075;28;20287;-48
2023/01/22 08:14:42;;;;;;;31.50;18.30;;;0.10;99.90;;;;;;5005689;28;20241;-49
2023/01/22 08:17:09;;;;;;;28.40;16.27;;;0.20;99.90;;;;;;5010974;28;20241;-48
2023/01/22 08:19:36;;;;;;;25.20;15.57;;;0.40;99.90;;;;;;5008525;28;20699;-47
2023/01/22 08:22:05;;;;;;;37.47;20.83;;;0.60;99.90;;;;;;5005921;28;20641;-48
2023/01/22 08:24:33;;;;;;;26.67;15.20;;;0.60;99.90;;;;;;5003522;28;20662;-48
2023/01/22 08:27:00;;;;;;;25.33;15.07;;;0.60;99.90;;;;;;4994403;28;20673;-49
2023/01/22 08:29:27;;;;;;;23.00;14.77;;;0.70;99.90;;;;;;5001668;28;20204;-48
2023/01/22 08:31:54;;;;;;;25.90;14.63;;;0.50;99.90;;;;;;5002308;28;20613;-49
2023/01/22 08:34:21;;;;;;;23.40;14.07;;;0.50;99.90;;;;;;5002880;28;20236;-49
2023/01/22 08:36:48;;;;;;;23.37;14.77;;;0.40;99.90;;;;;;5002401;28;20203;-48
2023/01/22 08:39:17;;;;;;;28.87;16.37;;;0.30;99.90;;;;;;5002879;28;20208;-47
2023/01/22 08:41:44;;;;;;;24.43;15.03;;;0.30;99.90;;;;;;5006751;28;20200;-47
2023/01/22 08:44:13;;;;;;;28.07;16.57;;;0.20;99.90;;;;;;5004548;28;20664;-48
2023/01/22 08:46:40;;;;;;;22.97;13.60;;;0.40;99.90;;;;;;5002682;28;20310;-47
2023/01/22 08:49:07;;;;;;;34.60;18.53;;;0.50;99.90;;;;;;5009735;28;20278;-48
2023/01/22 08:51:35;;;;;;;28.37;16.73;;;0.60;99.90;;;;;;5003342;28;20206;-48
2023/01/22 08:54:02;;;;;;;25.97;15.90;;;0.60;99.90;;;;;;5011596;28;20263;-49
2023/01/22 08:56:30;;;;;;;31.30;17.03;;;0.80;99.90;;;;;;5006618;28;20240;-48
2023/01/22 08:58:59;;;;;;;32.67;16.77;;;1.10;99.90;;;;;;4999611;28;20200;-48
2023/01/22 09:01:26;;;;;;;25.83;14.70;;;1.50;99.90;;;;;;4998272;28;20206;-48
2023/01/22 09:03:53;;;;;;;23.37;15.23;;;1.80;99.90;;;;;;5000103;28;20276;-49
2023/01/22 09:06:22;;;;;;;25.47;15.77;;;2.20;99.90;;;;;;4995748;28;20223;-49
2023/01/22 09:08:48;;;;;;;26.20;16.07;;;2.70;99.90;;;;;;5005372;28;20743;-47
2023/01/22 09:11:15;;;;;;;26.13;15.50;;;3.10;99.90;;;;;;5014533;28;20207;-50
2023/01/22 09:13:44;;;;;;;28.87;15.87;;;3.40;99.90;;;;;;5005484;28;20328;-48
2023/01/22 09:16:11;;;;;;;26.57;15.57;;;3.70;99.90;;;;;;5010106;28;20229;-48
2023/01/22 09:18:38;;;;;;;24.10;15.10;;;3.70;99.90;;;;;;5014042;28;20259;-50
2023/01/22 09:21:06;;;;;;;23.50;15.87;;;4.00;99.90;;;;;;5005022;28;20290;-48
2023/01/22 09:23:34;;;;;;;24.63;15.73;;;4.30;99.90;;;;;;5005237;28;20247;-50
2023/01/22 09:26:01;;;;;;;20.03;13.57;;;4.50;99.90;;;;;;5013901;28;20705;-48
2023/01/22 09:28:28;;;;;;;22.20;13.47;;;4.40;99.90;;;;;;4998898;28;20197;-48
2023/01/22 09:30:56;;;;;;;20.97;13.87;;;4.30;99.90;;;;;;5008631;28;20544;-49
2023/01/22 09:33:23;;;;;;;20.77;13.70;;;4.40;99.90;;;;;;5009002;28;20312;-49
2023/01/22 09:35:50;;;;;;;23.13;15.03;;;4.20;99.90;;;;;;5014620;28;20230;-49
2023/01/22 09:38:18;;;;;;;22.53;15.27;;;4.40;99.90;;;;;;5013102;28;20201;-47
2023/01/22 09:40:48;;;;;;;19.97;13.30;;;3.90;99.90;;;;;;5009454;28;20710;-47
2023/01/22 09:43:31;;;;;;;22.77;13.83;;;4.00;99.90;;;;;;5009051;28;20271;-49
2023/01/22 09:46:03;;;;;;;22.50;14.60;;;4.30;99.90;;;;;;5012978;28;20224;-50
2023/01/22 09:48:36;;;;;;;22.73;14.80;;;4.60;99.90;;;;;;5005331;28;20228;-50
2023/01/22 09:51:05;;;;;;;27.17;15.23;;;4.40;99.90;;;;;;5007718;28;20236;-49
2023/01/22 09:53:33;;;;;;;23.37;14.80;;;4.10;99.90;;;;;;5004221;28;20253;-48
2023/01/22 09:56:01;;;;;;;22.97;14.60;;;3.30;99.90;;;;;;5003694;28;20237;-50
2023/01/22 09:58:28;;;;;;;23.10;14.20;;;3.00;99.90;;;;;;5003433;28;20626;-48
2023/01/22 10:00:57;;;;;;;21.77;15.00;;;3.20;99.90;;;;;;5005249;28;20212;-49
2023/01/22 10:03:31;;;;;;;24.33;14.33;;;3.30;99.90;;;;;;5014220;28;20296;-48
2023/01/22 10:06:02;;;;;;;23.47;15.07;;;3.50;99.90;;;;;;4999092;28;20220;-48
2023/01/22 10:08:33;;;;;;;22.80;13.80;;;3.10;99.90;;;;;;5014103;28;20243;-50
2023/01/22 10:11:01;;;;;;;24.73;15.93;;;3.00;99.90;;;;;;5005034;28;20276;-48
2023/01/22 10:13:31;;;;;;;22.20;13.63;;;2.80;99.90;;;;;;4998560;28;20201;-48
2023/01/22 10:15:58;;;;;;;23.23;14.53;;;2.80;99.90;;;;;;4993978;28;20649;-49
2023/01/22 10:18:33;;;;;;;23.70;16.30;;;2.60;99.90;;;;;;5007463;28;20208;-49
2023/01/22 10:21:04;;;;;;;21.40;14.53;;;2.60;99.90;;;;;;5007588;28;20346;-47
2023/01/22 10:23:33;;;;;;;24.80;15.20;;;2.70;99.90;;;;;;5003009;28;20207;-48
2023/01/22 10:26:07;;;;;;;27.27;15.70;;;2.90;99.90;;;;;;5001760;28;20300;-48
2023/01/22 10:28:35;;;;;;;20.63;13.43;;;3.40;99.90;;;;;;5012993;28;20580;-48
2023/01/22 10:31:02;;;;;;;25.77;15.00;;;4.00;99.90;;;;;;5014483;28;20258;-49
2023/01/22 10:33:30;;;;;;;20.67;14.07;;;4.20;99.90;;;;;;5013709;28;20205;-49
2023/01/22 10:35:57;;;;;;;22.23;14.20;;;4.30;99.90;;;;;;5013119;28;20640;-51
2023/01/22 10:38:27;;;;;;;23.70;13.60;;;4.30;99.90;;;;;;5011201;28;20251;-50
2023/01/22 10:40:56;;;;;;;22.67;14.80;;;4.10;99.90;;;;;;5002646;28;20209;-48
2023/01/22 10:43:31;;;;;;;22.03;13.20;;;3.90;99.90;;;;;;5007086;28;20276;-49
2023/01/22 10:46:03;;;;;;;21.67;13.37;;;3.40;99.90;;;;;;5005804;28;20263;-49
2023/01/22 10:48:32;;;;;;;21.23;15.45;;;3.60;99.90;;;;;;5004000;28;20851;-48
2023/01/22 10:51:08;;;;;;;24.90;13.73;;;3.60;99.90;;;;;;4996426;28;20280;-50
2023/01/22 10:53:37;;;;;;;24.30;15.57;;;3.30;99.90;;;;;;5011795;28;20278;-48
2023/01/22 10:56:07;;;;;;;21.07;13.70;;;3.20;99.90;;;;;;5001706;28;20220;-47
2023/01/22 10:58:37;;;;;;;22.10;13.17;;;2.80;99.90;;;;;;5012203;28;20252;-47
2023/01/22 11:01:07;;;;;;;24.43;14.77;;;2.70;99.90;;;;;;5009833;28;20205;-47
2023/01/22 11:03:37;;;;;;;22.33;14.27;;;2.50;99.90;;;;;;5010533;28;20287;-46
2023/01/22 11:06:11;;;;;;;24.77;14.43;;;2.30;99.90;;;;;;5006755;28;20468;-48
2023/01/22 11:08:47;;;;;;;22.73;13.90;;;2.20;99.90;;;;;;5007769;28;20305;-47
2023/01/22 11:11:16;;;;;;;20.00;14.43;;;1.90;99.90;;;;;;5000628;28;20277;-47
2023/01/22 11:13:50;;;;;;;15.30;11.47;;;1.80;99.90;;;;;;5005795;28;20619;-46
2023/01/22 11:16:19;;;;;;;18.77;11.00;;;1.80;99.90;;;;;;5000521;28;20231;-47
2023/01/22 11:18:55;;;;;;;17.23;10.67;;;1.70;99.90;;;;;;5017110;28;20211;-46
2023/01/22 11:21:26;;;;;;;19.17;12.00;;;1.50;99.90;;;;;;4994537;28;20259;-47
2023/01/22 11:23:58;;;;;;;17.70;10.67;;;1.50;99.90;;;;;;4999799;28;20294;-48
2023/01/22 11:26:36;;;;;;;21.70;11.87;;;1.60;99.90;;;;;;5002639;28;20645;-48
2023/01/22 11:29:13;;;;;;;19.77;11.30;;;1.60;99.90;;;;;;5002630;28;20212;-47
2023/01/22 11:31:57;;;;;;;15.77;11.13;;;1.80;99.90;;;;;;5008240;28;20205;-48
2023/01/22 11:34:53;;;;;;;14.20;10.17;;;2.10;99.90;;;;;;5008807;28;20215;-48
2023/01/22 11:37:30;;;;;;;17.30;10.63;;;2.50;99.90;;;;;;4999850;28;20669;-47
2023/01/22 11:40:17;;;;;;;17.00;11.23;;;2.70;99.90;;;;;;4999197;28;20627;-47
2023/01/22 11:43:02;;;;;;;15.93;9.57;;;2.90;99.90;;;;;;4998470;28;20203;-46
2023/01/22 11:45:51;;;;;;;19.43;12.03;;;2.90;99.90;;;;;;4999637;28;20639;-47
2023/01/22 11:48:29;;;;;;;18.70;12.03;;;3.40;99.90;;;;;;5000642;28;20634;-46
2023/01/22 11:51:09;;;;;;;18.03;10.57;;;3.60;99.90;;;;;;5009467;28;20200;-47
2023/01/22 11:53:50;;;;;;;17.17;10.07;;;3.40;99.90;;;;;;5009110;28;20674;-46
2023/01/22 11:56:33;;;;;;;21.40;13.70;;;3.50;99.90;;;;;;5001795;28;20800;-47
2023/01/22 11:59:08;;;;;;;21.57;11.93;;;3.20;99.90;;;;;;4996571;28;20205;-47
2023/01/22 12:01:52;;;;;;;18.37;11.53;;;2.90;99.90;;;;;;5006407;28;20745;-47
2023/01/22 12:04:53;;;;;;;17.03;11.60;;;2.70;99.90;;;;;;5010040;28;20841;-48
2023/01/22 12:07:41;;;;;;;17.27;10.10;;;2.50;99.90;;;;;;5001658;28;20620;-46
2023/01/22 12:10:45;;;;;;;16.83;10.40;;;2.50;99.90;;;;;;4999281;28;20273;-46
2023/01/22 12:13:34;;;;;;;20.80;10.70;;;2.30;99.90;;;;;;4999977;28;20200;-46
2023/01/22 12:16:09;;;;;;;13.73;9.60;;;1.70;99.90;;;;;;4998735;28;20302;-45
2023/01/22 12:19:05;;;;;;;14.63;10.03;;;1.70;99.90;;;;;;5005279;28;20254;-47
2023/01/22 12:21:44;;;;;;;17.23;10.50;;;1.60;99.90;;;;;;5005783;28;20202;-47
2023/01/22 12:24:20;;;;;;;12.17;9.17;;;1.60;99.90;;;;;;5006516;28;20566;-46
2023/01/22 12:26:52;;;;;;;13.10;9.77;;;1.70;99.90;;;;;;5008566;28;21450;-47
2023/01/22 12:29:27;;;;;;;14.57;10.07;;;1.80;99.90;;;;;;5002570;28;20266;-47
2023/01/22 12:32:03;;;;;;;14.53;9.97;;;1.80;99.90;;;;;;4995689;28;20291;-47
2023/01/22 12:34:38;;;;;;;20.80;12.30;;;1.90;99.90;;;;;;5005515;28;20594;-46
2023/01/22 12:37:06;;;;;;;18.17;10.83;;;2.00;99.90;;;;;;5004580;28;20286;-47
2023/01/22 12:39:40;;;;;;;14.10;9.90;;;2.20;99.90;;;;;;4998485;28;20234;-47
2023/01/22 12:42:20;;;;;;;15.17;10.47;;;2.30;99.90;;;;;;4993141;28;20208;-46
2023/01/22 12:45:00;;;;;;;17.43;10.70;;;2.50;99.90;;;;;;4990543;28;20658;-46
2023/01/22 12:47:37;;;;;;;18.07;10.67;;;2.50;99.90;;;;;;4991156;28;20224;-47
2023/01/22 12:50:16;;;;;;;14.30;9.73;;;2.60;99.90;;;;;;5002859;28;20283;-47
2023/01/22 12:52:43;;;;;;;13.37;9.13;;;2.50;99.90;;;;;;5002842;28;20280;-48
2023/01/22 12:55:31;;;;;;;15.57;10.27;;;2.50;99.90;;;;;;4991012;28;20295;-48
2023/01/22 12:57:59;;;;;;;14.17;9.40;;;2.20;99.90;;;;;;4991055;28;20244;-48